AirNav   Free SoundLink Mini II speaker
 
 642 users online  

NR30 Harrisburg Hospital Heliport
Harrisburg, North Carolina, USA

GOING TO HARRISBURG?


FAA INFORMATION EFFECTIVE 26 MARCH 2020

Location

FAA Identifier: NR30
Lat/Long: 35-17-09.2000N 080-39-58.9800W
35-17.153333N 080-39.983000W
35.2858889,-80.6663833
(estimated)
Elevation: 723 ft. / 220 m (estimated)
From city: 2 miles S of HARRISBURG, NC
Time zone: UTC -4 (UTC -5 during Standard Time)
Zip code: 28075

Heliport Operations

Heliport use: Private use. Permission required prior to landing
Activation date: 06/2017
Control tower: no
ARTCC: ATLANTA CENTER
FSS: RALEIGH FLIGHT SERVICE STATION
Attendance: 
Wind indicator: lighted
Segmented circle: no

Heliport Communications

WX AWOS-3 at JQF (6 nm N): 133.675 (704-785-2145)
WX ASOS at CLT (15 nm W): 121.15 (704-359-0235)
WX ASOS at EQY (16 nm S): 135.775 (704-283-5185)

Nearby radio navigation aids

VOR radial/distance  VOR name  Freq  Var
CLTr073/15.1CHARLOTTE VOR/DME115.0005W

 
NDB name  Hdg/Dist  Freq  Var  ID
STONIA083/24.726006WGHJ --. .... .---
LANCASTER023/35.140007WLKR .-.. -.- .-.
CHESTER047/39.922006WDCM -.. -.-. --

Heliport Services

Runway Information

Helipad H1

Dimensions: 60 x 60 ft. / 18 x 18 m
Surface: concrete, in excellent condition
Runway edge lights: PERI
Latitude: 35-17.153333N
Longitude: 080-39.983000W
Elevation: 723.0 ft.
Traffic pattern: leftleft

Heliport Ownership and Management from official FAA records

Ownership: Privately-owned
Owner: CAROLINAS HEALTHCARE SYSTEM
9592 ROCKY RIVER ROAD
HARRISBURG, NC 28075
Phone 704-403-9400
Manager: KAREN CORKER
9592 ROCKY RIVER ROAD
HARRISBURG, NC 28075
Phone 704-403-4840

Additional Remarks

FOR CD CTC ATLANTA ARTCC AT 770-210-7692.

Instrument Procedures

There are no published instrument procedures at NR30.

Some nearby airports with instrument procedures:

KJQF - Concord-Padgett Regional Airport (6 nm N)
KCLT - Charlotte/Douglas International Airport (15 nm W)
KEQY - Charlotte-Monroe Executive Airport (16 nm S)
14A - Lake Norman Airpark (23 nm NW)
KRUQ - Mid-Carolina Regional Airport (23 nm N)
 
Loc | Ops | Rwys | IFR | FBO | Links
Com | Nav | Svcs | Stats | Notes
Aerial photo
No photo
 
Airport distance calculator
Flying to Harrisburg Hospital Heliport? Find the distance to fly.

From to NR30

Sunrise and sunset
Times for 10-Apr-2020
 Local
(UTC-4)
 Zulu
(UTC)
Morning civil twilight06:3110:31
Sunrise06:5710:57
Sunset19:5123:51
Evening civil twilight20:1700:17

Current date and time
Zulu (UTC)  10-Apr-2020 04:52:02
Local (UTC-4)  10-Apr-2020 00:52:02
 
METAR
KJQF 
6nm NW 
100435Z AUTO 31008G21KT 280V340 10SM CLR 17/M04 A2969 RMK AO2
KCLT 
15nm W 
100352Z 29010G24KT 10SM FEW250 19/M04 A2966 RMK AO2 SLP035 T01891039
KEQY 
16nm S 
100353Z AUTO 26007KT 10SM CLR 16/01 A2963 RMK AO2 SLP038 T01610006
TAF
KCLT 
15nm W 
091945Z 0920/1024 28015G26KT P6SM FEW070 SCT250 FM092300 28011G18KT P6SM SCT250 FM100100 30009KT P6SM FEW250 FM101300 33011G21KT P6SM SKC
NOTAMs
Click for the latest NOTAMs
NOTAMs are issued by the DoD/FAA and will open in a separate window not controlled by AirNav.

 

 
 

Would you like to see your business listed on this page?

 If your business provides an interesting product or service to pilots, flight crews, aircraft, or users of the Harrisburg Hospital Heliport, you should consider listing it here.  To start the listing process, click on the button below
 
Add a business
 

Other Pages about Harrisburg Hospital Heliport

Update a link
 
Copyright © AirNav, LLC. All rights reserved. Privacy Policy  Contact